sensor_id;sensor_type;location;lat;lon;timestamp;pressure;altitude;pressure_sealevel;temperature;humidity
31062;BME280;17724;53.546;9.974;2023-03-15T00:01:42;100675.53;;;2.78;100.00
31062;BME280;17724;53.546;9.974;2023-03-15T00:05:47;100670.09;;;2.78;100.00
31062;BME280;17724;53.546;9.974;2023-03-15T00:09:48;100689.06;;;2.91;100.00
31062;BME280;17724;53.546;9.974;2023-03-15T00:13:48;100700.81;;;2.85;100.00
31062;BME280;17724;53.546;9.974;2023-03-15T00:17:50;100702.06;;;2.76;100.00
31062;BME280;17724;53.546;9.974;2023-03-15T00:21:51;100710.41;;;2.74;100.00
31062;BME280;17724;53.546;9.974;2023-03-15T00:25:52;100712.50;;;2.72;100.00
31062;BME280;17724;53.546;9.974;2023-03-15T00:29:52;100715.41;;;2.77;100.00
31062;BME280;17724;53.546;9.974;2023-03-15T00:33:52;100710.41;;;2.81;100.00
31062;BME280;17724;53.546;9.974;2023-03-15T00:37:56;100722.09;;;2.81;100.00
31062;BME280;17724;53.546;9.974;2023-03-15T00:41:56;100718.13;;;2.70;100.00
31062;BME280;17724;53.546;9.974;2023-03-15T00:45:57;100723.78;;;2.76;100.00
31062;BME280;17724;53.546;9.974;2023-03-15T00:49:58;100733.81;;;2.88;100.00
31062;BME280;17724;53.546;9.974;2023-03-15T00:53:58;100734.84;;;2.81;100.00
31062;BME280;17724;53.546;9.974;2023-03-15T00:57:59;100736.09;;;2.52;100.00
31062;BME280;17724;53.546;9.974;2023-03-15T01:02:01;100742.13;;;2.54;100.00
31062;BME280;17724;53.546;9.974;2023-03-15T01:06:13;100748.81;;;2.44;100.00
31062;BME280;17724;53.546;9.974;2023-03-15T01:10:15;100746.03;;;2.18;100.00
31062;BME280;17724;53.546;9.974;2023-03-15T01:14:16;100749.00;;;2.30;100.00
31062;BME280;17724;53.546;9.974;2023-03-15T01:18:18;100751.13;;;2.54;100.00
31062;BME280;17724;53.546;9.974;2023-03-15T01:22:19;100752.34;;;2.38;100.00
31062;BME280;17724;53.546;9.974;2023-03-15T01:26:20;100751.72;;;2.43;100.00
31062;BME280;17724;53.546;9.974;2023-03-15T01:30:21;100761.13;;;2.40;100.00
31062;BME280;17724;53.546;9.974;2023-03-15T01:34:22;100769.03;;;2.29;100.00
31062;BME280;17724;53.546;9.974;2023-03-15T01:38:22;100781.09;;;2.13;100.00
31062;BME280;17724;53.546;9.974;2023-03-15T01:42:23;100780.78;;;1.94;100.00
31062;BME280;17724;53.546;9.974;2023-03-15T01:46:30;100777.63;;;1.84;100.00
31062;BME280;17724;53.546;9.974;2023-03-15T01:50:43;100794.19;;;2.03;100.00
31062;BME280;17724;53.546;9.974;2023-03-15T01:54:50;100803.59;;;2.00;100.00
31062;BME280;17724;53.546;9.974;2023-03-15T01:58:54;100806.06;;;2.02;100.00
31062;BME280;17724;53.546;9.974;2023-03-15T02:03:01;100814.94;;;2.24;100.00
31062;BME280;17724;53.546;9.974;2023-03-15T02:07:06;100812.88;;;2.39;100.00
31062;BME280;17724;53.546;9.974;2023-03-15T02:11:09;100806.25;;;2.55;100.00
31062;BME280;17724;53.546;9.974;2023-03-15T02:15:11;100817.13;;;2.61;100.00
31062;BME280;17724;53.546;9.974;2023-03-15T02:19:39;100815.50;;;2.80;100.00
31062;BME280;17724;53.546;9.974;2023-03-15T02:23:48;100822.34;;;2.63;100.00
31062;BME280;17724;53.546;9.974;2023-03-15T02:27:54;100828.63;;;2.63;100.00
31062;BME280;17724;53.546;9.974;2023-03-15T02:31:56;100824.28;;;2.76;100.00
31062;BME280;17724;53.546;9.974;2023-03-15T02:36:14;100836.59;;;2.71;100.00
31062;BME280;17724;53.546;9.974;2023-03-15T02:40:18;100854.94;;;2.63;100.00
31062;BME280;17724;53.546;9.974;2023-03-15T02:44:29;100853.28;;;2.68;100.00
31062;BME280;17724;53.546;9.974;2023-03-15T02:48:33;100862.44;;;2.61;100.00
31062;BME280;17724;53.546;9.974;2023-03-15T02:52:34;100867.69;;;2.69;100.00
31062;BME280;17724;53.546;9.974;2023-03-15T02:56:35;100873.56;;;2.72;100.00
31062;BME280;17724;53.546;9.974;2023-03-15T03:00:36;100882.75;;;2.78;100.00
31062;BME280;17724;53.546;9.974;2023-03-15T03:04:38;100882.94;;;2.70;100.00
31062;BME280;17724;53.546;9.974;2023-03-15T03:08:39;100890.09;;;2.84;100.00
31062;BME280;17724;53.546;9.974;2023-03-15T03:12:41;100902.22;;;2.88;100.00
31062;BME280;17724;53.546;9.974;2023-03-15T03:16:42;100896.97;;;2.87;100.00
31062;BME280;17724;53.546;9.974;2023-03-15T03:20:43;100905.34;;;2.99;100.00
31062;BME280;17724;53.546;9.974;2023-03-15T03:24:45;100915.56;;;2.77;100.00
31062;BME280;17724;53.546;9.974;2023-03-15T03:28:47;100906.38;;;2.84;100.00
31062;BME280;17724;53.546;9.974;2023-03-15T03:32:49;100931.25;;;2.94;100.00
31062;BME280;17724;53.546;9.974;2023-03-15T03:36:50;100936.91;;;2.93;100.00
31062;BME280;17724;53.546;9.974;2023-03-15T03:40:59;100949.06;;;3.04;100.00
31062;BME280;17724;53.546;9.974;2023-03-15T03:45:03;100965.59;;;3.22;100.00
31062;BME280;17724;53.546;9.974;2023-03-15T03:49:08;100973.16;;;3.20;100.00
31062;BME280;17724;53.546;9.974;2023-03-15T03:53:08;100976.91;;;3.39;100.00
31062;BME280;17724;53.546;9.974;2023-03-15T03:57:10;100998.06;;;3.37;100.00
31062;BME280;17724;53.546;9.974;2023-03-15T04:01:12;100999.28;;;3.21;100.00
31062;BME280;17724;53.546;9.974;2023-03-15T04:05:14;101006.69;;;2.86;100.00
31062;BME280;17724;53.546;9.974;2023-03-15T04:09:15;101005.03;;;2.91;100.00
31062;BME280;17724;53.546;9.974;2023-03-15T04:13:19;100999.84;;;3.03;100.00
31062;BME280;17724;53.546;9.974;2023-03-15T04:17:20;100993.44;;;2.69;100.00
31062;BME280;17724;53.546;9.974;2023-03-15T04:21:20;100998.53;;;2.86;100.00
31062;BME280;17724;53.546;9.974;2023-03-15T04:25:23;101011.13;;;2.59;100.00
31062;BME280;17724;53.546;9.974;2023-03-15T04:29:52;101027.25;;;2.67;100.00
31062;BME280;17724;53.546;9.974;2023-03-15T04:34:11;101037.16;;;2.81;100.00
31062;BME280;17724;53.546;9.974;2023-03-15T04:38:33;101041.75;;;2.81;100.00
31062;BME280;17724;53.546;9.974;2023-03-15T04:42:51;101049.97;;;2.94;100.00
31062;BME280;17724;53.546;9.974;2023-03-15T04:47:23;101048.25;;;2.86;100.00
31062;BME280;17724;53.546;9.974;2023-03-15T04:51:35;101052.84;;;2.86;100.00
31062;BME280;17724;53.546;9.974;2023-03-15T04:56:00;101054.16;;;2.96;100.00
31062;BME280;17724;53.546;9.974;2023-03-15T05:00:21;101051.50;;;3.10;100.00
31062;BME280;17724;53.546;9.974;2023-03-15T05:05:00;101055.47;;;2.66;100.00
31062;BME280;17724;53.546;9.974;2023-03-15T05:09:36;101064.59;;;2.93;100.00
31062;BME280;17724;53.546;9.974;2023-03-15T05:14:03;101057.34;;;2.65;100.00
31062;BME280;17724;53.546;9.974;2023-03-15T05:18:04;101072.25;;;2.76;100.00
31062;BME280;17724;53.546;9.974;2023-03-15T05:22:39;101075.75;;;2.70;100.00
31062;BME280;17724;53.546;9.974;2023-03-15T05:26:40;101084.50;;;2.65;100.00
31062;BME280;17724;53.546;9.974;2023-03-15T05:31:05;101107.81;;;2.53;100.00
31062;BME280;17724;53.546;9.974;2023-03-15T05:35:44;101118.53;;;2.61;100.00
31062;BME280;17724;53.546;9.974;2023-03-15T05:40:05;101133.28;;;2.52;100.00
31062;BME280;17724;53.546;9.974;2023-03-15T05:44:23;101125.88;;;2.67;100.00
31062;BME280;17724;53.546;9.974;2023-03-15T05:48:39;101128.78;;;2.66;100.00
31062;BME280;17724;53.546;9.974;2023-03-15T05:52:58;101138.03;;;2.43;100.00
31062;BME280;17724;53.546;9.974;2023-03-15T05:57:08;101138.09;;;2.29;100.00
31062;BME280;17724;53.546;9.974;2023-03-15T06:01:23;101147.47;;;2.26;100.00
31062;BME280;17724;53.546;9.974;2023-03-15T06:05:41;101153.31;;;2.51;100.00
31062;BME280;17724;53.546;9.974;2023-03-15T06:09:47;101171.75;;;2.56;100.00
31062;BME280;17724;53.546;9.974;2023-03-15T06:13:48;101178.16;;;2.27;100.00
31062;BME280;17724;53.546;9.974;2023-03-15T06:18:02;101195.06;;;2.07;100.00
31062;BME280;17724;53.546;9.974;2023-03-15T06:22:04;101197.66;;;2.15;100.00
31062;BME280;17724;53.546;9.974;2023-03-15T06:26:14;101201.84;;;2.39;100.00
31062;BME280;17724;53.546;9.974;2023-03-15T06:30:15;101206.44;;;2.39;100.00
31062;BME280;17724;53.546;9.974;2023-03-15T06:34:16;101205.34;;;2.55;100.00
31062;BME280;17724;53.546;9.974;2023-03-15T06:38:16;101223.38;;;2.62;100.00
31062;BME280;17724;53.546;9.974;2023-03-15T06:42:17;101227.59;;;2.65;100.00
31062;BME280;17724;53.546;9.974;2023-03-15T06:46:18;101219.84;;;2.90;100.00
31062;BME280;17724;53.546;9.974;2023-03-15T06:50:19;101226.06;;;2.84;100.00
31062;BME280;17724;53.546;9.974;2023-03-15T06:54:19;101225.72;;;2.93;100.00
31062;BME280;17724;53.546;9.974;2023-03-15T06:58:20;101235.06;;;3.19;100.00
31062;BME280;17724;53.546;9.974;2023-03-15T07:02:21;101236.13;;;3.18;100.00
31062;BME280;17724;53.546;9.974;2023-03-15T07:06:22;101243.19;;;3.40;100.00
31062;BME280;17724;53.546;9.974;2023-03-15T07:10:23;101259.28;;;3.42;100.00
31062;BME280;17724;53.546;9.974;2023-03-15T07:14:23;101252.41;;;3.46;100.00
31062;BME280;17724;53.546;9.974;2023-03-15T07:18:24;101271.09;;;3.62;100.00
31062;BME280;17724;53.546;9.974;2023-03-15T07:22:24;101284.59;;;3.77;100.00
31062;BME280;17724;53.546;9.974;2023-03-15T07:26:25;101310.59;;;3.52;100.00
31062;BME280;17724;53.546;9.974;2023-03-15T07:30:26;101328.84;;;3.30;100.00
31062;BME280;17724;53.546;9.974;2023-03-15T07:34:27;101330.78;;;2.86;100.00
31062;BME280;17724;53.546;9.974;2023-03-15T07:38:27;101325.88;;;2.39;100.00
31062;BME280;17724;53.546;9.974;2023-03-15T07:42:28;101313.94;;;2.55;100.00
31062;BME280;17724;53.546;9.974;2023-03-15T07:46:33;101310.22;;;2.56;100.00
31062;BME280;17724;53.546;9.974;2023-03-15T07:50:34;101317.13;;;2.80;100.00
31062;BME280;17724;53.546;9.974;2023-03-15T07:54:34;101323.13;;;2.96;100.00
31062;BME280;17724;53.546;9.974;2023-03-15T07:58:35;101326.19;;;3.15;100.00
31062;BME280;17724;53.546;9.974;2023-03-15T08:02:35;101326.50;;;3.27;100.00
31062;BME280;17724;53.546;9.974;2023-03-15T08:06:36;101329.28;;;3.33;100.00
31062;BME280;17724;53.546;9.974;2023-03-15T08:10:36;101335.13;;;3.30;100.00
31062;BME280;17724;53.546;9.974;2023-03-15T08:14:37;101345.75;;;3.53;100.00
31062;BME280;17724;53.546;9.974;2023-03-15T08:18:37;101343.53;;;3.63;100.00
31062;BME280;17724;53.546;9.974;2023-03-15T08:22:38;101345.78;;;3.94;100.00
31062;BME280;17724;53.546;9.974;2023-03-15T08:26:38;101343.66;;;4.31;100.00
31062;BME280;17724;53.546;9.974;2023-03-15T08:30:39;101371.50;;;5.34;100.00
31062;BME280;17724;53.546;9.974;2023-03-15T08:34:40;101363.03;;;6.60;97.62
31062;BME280;17724;53.546;9.974;2023-03-15T08:38:40;101381.91;;;6.69;90.29
31062;BME280;17724;53.546;9.974;2023-03-15T08:42:41;101385.75;;;6.03;88.10
31062;BME280;17724;53.546;9.974;2023-03-15T08:46:41;101394.25;;;6.33;90.31
31062;BME280;17724;53.546;9.974;2023-03-15T08:50:42;101391.22;;;6.93;89.50
31062;BME280;17724;53.546;9.974;2023-03-15T08:54:43;101404.19;;;6.72;85.55
31062;BME280;17724;53.546;9.974;2023-03-15T08:58:44;101414.44;;;7.15;82.89
31062;BME280;17724;53.546;9.974;2023-03-15T09:02:46;101419.44;;;7.75;81.12
31062;BME280;17724;53.546;9.974;2023-03-15T09:06:48;101423.41;;;8.22;79.93
31062;BME280;17724;53.546;9.974;2023-03-15T09:10:55;101437.09;;;8.22;76.51
31062;BME280;17724;53.546;9.974;2023-03-15T09:14:56;101461.94;;;7.52;78.61
31062;BME280;17724;53.546;9.974;2023-03-15T09:18:56;101477.44;;;6.44;81.79
31062;BME280;17724;53.546;9.974;2023-03-15T09:22:57;101474.91;;;5.16;89.00
31062;BME280;17724;53.546;9.974;2023-03-15T09:26:58;101423.69;;;4.37;93.77
31062;BME280;17724;53.546;9.974;2023-03-15T09:30:58;101438.16;;;4.37;96.94
31062;BME280;17724;53.546;9.974;2023-03-15T09:34:59;101450.66;;;4.25;100.00
31062;BME280;17724;53.546;9.974;2023-03-15T09:38:59;101449.31;;;3.80;100.00
31062;BME280;17724;53.546;9.974;2023-03-15T09:47:19;101449.16;;;5.58;100.00
31062;BME280;17724;53.546;9.974;2023-03-15T09:51:38;101452.97;;;5.71;98.80
31062;BME280;17724;53.546;9.974;2023-03-15T09:55:42;101458.41;;;5.90;98.10
31062;BME280;17724;53.546;9.974;2023-03-15T09:59:46;101456.06;;;5.34;96.35
31062;BME280;17724;53.546;9.974;2023-03-15T10:03:50;101456.50;;;5.64;97.13
31062;BME280;17724;53.546;9.974;2023-03-15T10:07:51;101478.13;;;5.59;95.77
31062;BME280;17724;53.546;9.974;2023-03-15T10:12:02;101469.91;;;5.19;97.93
31062;BME280;17724;53.546;9.974;2023-03-15T10:16:39;101465.34;;;4.79;97.77
31062;BME280;17724;53.546;9.974;2023-03-15T10:20:44;101468.31;;;4.90;99.08
31062;BME280;17724;53.546;9.974;2023-03-15T10:28:53;101459.91;;;4.72;100.00
31062;BME280;17724;53.546;9.974;2023-03-15T10:33:00;101453.06;;;4.96;100.00
31062;BME280;17724;53.546;9.974;2023-03-15T10:37:01;101449.94;;;4.99;99.96
31062;BME280;17724;53.546;9.974;2023-03-15T10:41:05;101461.25;;;5.03;98.78
31062;BME280;17724;53.546;9.974;2023-03-15T10:45:32;101455.41;;;5.12;98.88
31062;BME280;17724;53.546;9.974;2023-03-15T10:49:35;101465.63;;;4.97;97.92
31062;BME280;17724;53.546;9.974;2023-03-15T10:53:50;101469.38;;;4.83;95.50
31062;BME280;17724;53.546;9.974;2023-03-15T10:57:54;101464.00;;;5.03;93.34
31062;BME280;17724;53.546;9.974;2023-03-15T11:06:23;101490.28;;;5.37;92.10
31062;BME280;17724;53.546;9.974;2023-03-15T11:10:32;101491.16;;;5.64;91.58
31062;BME280;17724;53.546;9.974;2023-03-15T11:14:40;101498.13;;;6.00;91.04
31062;BME280;17724;53.546;9.974;2023-03-15T11:19:01;101513.00;;;5.71;86.43
31062;BME280;17724;53.546;9.974;2023-03-15T11:23:23;101521.16;;;5.77;84.36
31062;BME280;17724;53.546;9.974;2023-03-15T11:27:25;101524.09;;;5.69;81.55
31062;BME280;17724;53.546;9.974;2023-03-15T11:31:28;101524.53;;;5.73;81.70
31062;BME280;17724;53.546;9.974;2023-03-15T11:35:42;101519.94;;;5.93;83.77
31062;BME280;17724;53.546;9.974;2023-03-15T11:39:54;101533.81;;;5.98;82.27
31062;BME280;17724;53.546;9.974;2023-03-15T11:44:35;101517.44;;;6.11;84.34
31062;BME280;17724;53.546;9.974;2023-03-15T11:52:55;101570.53;;;5.14;81.92
31062;BME280;17724;53.546;9.974;2023-03-15T11:57:00;101569.06;;;4.64;86.02
31062;BME280;17724;53.546;9.974;2023-03-15T12:01:03;101563.31;;;4.52;88.64
31062;BME280;17724;53.546;9.974;2023-03-15T12:05:04;101564.38;;;4.51;88.79
31062;BME280;17724;53.546;9.974;2023-03-15T12:13:37;101556.72;;;4.68;93.58
31062;BME280;17724;53.546;9.974;2023-03-15T12:17:58;101563.38;;;4.59;93.94
31062;BME280;17724;53.546;9.974;2023-03-15T12:21:59;101556.31;;;4.78;94.97
31062;BME280;17724;53.546;9.974;2023-03-15T12:30:05;101573.44;;;5.00;95.39
31062;BME280;17724;53.546;9.974;2023-03-15T12:34:13;101566.88;;;4.94;95.92
31062;BME280;17724;53.546;9.974;2023-03-15T12:38:20;101590.63;;;4.65;90.92
31062;BME280;17724;53.546;9.974;2023-03-15T12:50:59;101570.63;;;5.28;78.13
31062;BME280;17724;53.546;9.974;2023-03-15T12:55:05;101567.38;;;5.04;83.91
31062;BME280;17724;53.546;9.974;2023-03-15T12:59:30;101571.50;;;4.93;90.73
31062;BME280;17724;53.546;9.974;2023-03-15T13:03:34;101576.97;;;4.93;91.65
31062;BME280;17724;53.546;9.974;2023-03-15T13:07:48;101568.38;;;4.97;92.86
31062;BME280;17724;53.546;9.974;2023-03-15T13:12:06;101562.41;;;5.21;91.10
31062;BME280;17724;53.546;9.974;2023-03-15T13:16:20;101563.06;;;5.30;90.22
31062;BME280;17724;53.546;9.974;2023-03-15T13:29:07;101570.69;;;5.61;86.30
31062;BME280;17724;53.546;9.974;2023-03-15T13:37:23;101579.63;;;6.23;78.03
31062;BME280;17724;53.546;9.974;2023-03-15T13:41:30;101585.88;;;6.50;75.81
31062;BME280;17724;53.546;9.974;2023-03-15T13:45:30;101594.69;;;6.65;75.55
31062;BME280;17724;53.546;9.974;2023-03-15T13:49:32;101602.69;;;6.66;73.20
31062;BME280;17724;53.546;9.974;2023-03-15T13:53:34;101603.75;;;6.59;68.85
31062;BME280;17724;53.546;9.974;2023-03-15T13:57:35;101587.78;;;6.62;67.07
31062;BME280;17724;53.546;9.974;2023-03-15T14:01:38;101592.53;;;6.94;68.38
31062;BME280;17724;53.546;9.974;2023-03-15T14:05:46;101619.22;;;7.05;69.34
31062;BME280;17724;53.546;9.974;2023-03-15T14:09:47;101630.00;;;6.80;66.95
31062;BME280;17724;53.546;9.974;2023-03-15T14:13:50;101623.69;;;6.66;64.74
31062;BME280;17724;53.546;9.974;2023-03-15T14:18:14;101628.34;;;6.72;64.92
31062;BME280;17724;53.546;9.974;2023-03-15T14:22:17;101628.13;;;6.54;73.07
31062;BME280;17724;53.546;9.974;2023-03-15T14:26:21;101634.84;;;6.18;76.09
31062;BME280;17724;53.546;9.974;2023-03-15T14:30:24;101625.47;;;5.53;80.15
31062;BME280;17724;53.546;9.974;2023-03-15T14:34:45;101628.88;;;5.68;82.75
31062;BME280;17724;53.546;9.974;2023-03-15T14:38:53;101628.91;;;5.75;80.86
31062;BME280;17724;53.546;9.974;2023-03-15T14:42:54;101637.03;;;5.61;81.24
31062;BME280;17724;53.546;9.974;2023-03-15T14:46:54;101621.84;;;5.46;80.76
31062;BME280;17724;53.546;9.974;2023-03-15T14:50:55;101634.09;;;5.63;81.25
31062;BME280;17724;53.546;9.974;2023-03-15T14:54:55;101631.63;;;5.75;81.23
31062;BME280;17724;53.546;9.974;2023-03-15T14:58:58;101639.25;;;5.99;82.93
31062;BME280;17724;53.546;9.974;2023-03-15T15:02:58;101627.84;;;5.82;81.86
31062;BME280;17724;53.546;9.974;2023-03-15T15:06:59;101640.31;;;6.05;83.06
31062;BME280;17724;53.546;9.974;2023-03-15T15:11:02;101641.16;;;6.05;82.11
31062;BME280;17724;53.546;9.974;2023-03-15T15:15:21;101639.88;;;5.95;83.07
31062;BME280;17724;53.546;9.974;2023-03-15T15:19:22;101633.59;;;6.07;84.83
31062;BME280;17724;53.546;9.974;2023-03-15T15:27:27;101655.91;;;6.51;83.64
31062;BME280;17724;53.546;9.974;2023-03-15T15:31:29;101659.44;;;6.91;81.75
31062;BME280;17724;53.546;9.974;2023-03-15T15:35:33;101667.78;;;7.16;78.81
31062;BME280;17724;53.546;9.974;2023-03-15T15:39:33;101681.66;;;7.28;70.40
31062;BME280;17724;53.546;9.974;2023-03-15T15:43:34;101698.38;;;7.58;64.50
31062;BME280;17724;53.546;9.974;2023-03-15T15:47:34;101698.09;;;7.79;64.24
31062;BME280;17724;53.546;9.974;2023-03-15T15:51:37;101706.81;;;7.63;61.00
31062;BME280;17724;53.546;9.974;2023-03-15T15:55:40;101709.84;;;7.22;56.96
31062;BME280;17724;53.546;9.974;2023-03-15T15:59:41;101717.03;;;7.16;57.39
31062;BME280;17724;53.546;9.974;2023-03-15T16:03:42;101717.47;;;7.06;57.07
31062;BME280;17724;53.546;9.974;2023-03-15T16:07:42;101708.13;;;7.34;59.08
31062;BME280;17724;53.546;9.974;2023-03-15T16:11:43;101732.09;;;7.45;59.46
31062;BME280;17724;53.546;9.974;2023-03-15T16:15:44;101724.34;;;7.35;60.98
31062;BME280;17724;53.546;9.974;2023-03-15T16:19:44;101720.75;;;7.41;62.83
31062;BME280;17724;53.546;9.974;2023-03-15T16:23:49;101728.34;;;7.39;59.53
31062;BME280;17724;53.546;9.974;2023-03-15T16:27:54;101737.03;;;6.97;58.09
31062;BME280;17724;53.546;9.974;2023-03-15T16:31:55;101738.50;;;7.19;60.31
31062;BME280;17724;53.546;9.974;2023-03-15T16:35:57;101740.00;;;6.95;59.02
31062;BME280;17724;53.546;9.974;2023-03-15T16:39:59;101751.13;;;7.20;61.27
31062;BME280;17724;53.546;9.974;2023-03-15T16:44:00;101760.56;;;7.18;61.58
31062;BME280;17724;53.546;9.974;2023-03-15T16:48:01;101752.16;;;7.26;62.92
31062;BME280;17724;53.546;9.974;2023-03-15T16:52:03;101759.31;;;7.27;63.16
31062;BME280;17724;53.546;9.974;2023-03-15T16:56:07;101758.66;;;7.38;65.01
31062;BME280;17724;53.546;9.974;2023-03-15T17:00:13;101769.41;;;7.39;64.05
31062;BME280;17724;53.546;9.974;2023-03-15T17:04:16;101774.47;;;7.36;63.22
31062;BME280;17724;53.546;9.974;2023-03-15T17:08:18;101771.56;;;7.11;62.02
31062;BME280;17724;53.546;9.974;2023-03-15T17:12:25;101784.78;;;7.14;62.05
31062;BME280;17724;53.546;9.974;2023-03-15T17:16:26;101792.16;;;7.13;62.15
31062;BME280;17724;53.546;9.974;2023-03-15T17:20:27;101802.03;;;7.28;61.98
31062;BME280;17724;53.546;9.974;2023-03-15T17:24:28;101800.78;;;7.30;64.53
31062;BME280;17724;53.546;9.974;2023-03-15T17:28:28;101807.50;;;7.28;64.67
31062;BME280;17724;53.546;9.974;2023-03-15T17:32:29;101802.66;;;7.30;65.66
31062;BME280;17724;53.546;9.974;2023-03-15T17:36:33;101802.88;;;7.35;66.44
31062;BME280;17724;53.546;9.974;2023-03-15T17:40:36;101820.16;;;7.22;63.02
31062;BME280;17724;53.546;9.974;2023-03-15T17:44:37;101822.69;;;7.10;61.23
31062;BME280;17724;53.546;9.974;2023-03-15T17:48:37;101820.94;;;6.70;63.92
31062;BME280;17724;53.546;9.974;2023-03-15T17:52:38;101807.94;;;6.91;66.63
31062;BME280;17724;53.546;9.974;2023-03-15T17:56:39;101815.75;;;7.14;69.65
31062;BME280;17724;53.546;9.974;2023-03-15T18:00:39;101832.97;;;7.02;67.59
31062;BME280;17724;53.546;9.974;2023-03-15T18:04:42;101829.41;;;6.88;69.74
31062;BME280;17724;53.546;9.974;2023-03-15T18:08:43;101819.94;;;6.90;69.17
31062;BME280;17724;53.546;9.974;2023-03-15T18:12:46;101832.78;;;7.03;70.89
31062;BME280;17724;53.546;9.974;2023-03-15T18:16:47;101831.09;;;7.29;69.90
31062;BME280;17724;53.546;9.974;2023-03-15T18:20:47;101843.31;;;7.06;68.72
31062;BME280;17724;53.546;9.974;2023-03-15T18:24:48;101850.44;;;6.87;69.40
31062;BME280;17724;53.546;9.974;2023-03-15T18:28:49;101843.09;;;7.14;72.89
31062;BME280;17724;53.546;9.974;2023-03-15T18:32:51;101842.22;;;7.01;72.26
31062;BME280;17724;53.546;9.974;2023-03-15T18:36:52;101848.72;;;6.73;69.48
31062;BME280;17724;53.546;9.974;2023-03-15T18:40:53;101842.84;;;6.76;72.08
31062;BME280;17724;53.546;9.974;2023-03-15T18:44:54;101832.13;;;6.81;73.49
31062;BME280;17724;53.546;9.974;2023-03-15T18:48:55;101852.03;;;6.62;70.20
31062;BME280;17724;53.546;9.974;2023-03-15T18:52:56;101861.09;;;6.56;72.61
31062;BME280;17724;53.546;9.974;2023-03-15T18:56:56;101863.00;;;6.69;72.03
31062;BME280;17724;53.546;9.974;2023-03-15T19:00:57;101854.38;;;6.58;72.54
31062;BME280;17724;53.546;9.974;2023-03-15T19:04:58;101869.28;;;6.56;71.49
31062;BME280;17724;53.546;9.974;2023-03-15T19:08:58;101860.63;;;6.46;75.25
31062;BME280;17724;53.546;9.974;2023-03-15T19:12:59;101867.53;;;6.41;75.47
31062;BME280;17724;53.546;9.974;2023-03-15T19:17:00;101869.41;;;6.28;73.95
31062;BME280;17724;53.546;9.974;2023-03-15T19:21:00;101862.25;;;6.33;76.67
31062;BME280;17724;53.546;9.974;2023-03-15T19:25:01;101861.78;;;6.16;77.61
31062;BME280;17724;53.546;9.974;2023-03-15T19:29:03;101868.13;;;6.24;77.26
31062;BME280;17724;53.546;9.974;2023-03-15T19:33:05;101874.25;;;6.32;76.89
31062;BME280;17724;53.546;9.974;2023-03-15T19:37:05;101870.19;;;6.22;77.74
31062;BME280;17724;53.546;9.974;2023-03-15T19:41:06;101877.28;;;6.09;78.49
31062;BME280;17724;53.546;9.974;2023-03-15T19:45:08;101872.13;;;6.28;82.21
31062;BME280;17724;53.546;9.974;2023-03-15T19:49:10;101878.84;;;5.90;78.28
31062;BME280;17724;53.546;9.974;2023-03-15T19:53:11;101883.22;;;5.85;80.88
31062;BME280;17724;53.546;9.974;2023-03-15T19:57:11;101885.88;;;5.72;81.11
31062;BME280;17724;53.546;9.974;2023-03-15T20:01:12;101885.72;;;5.86;80.97
31062;BME280;17724;53.546;9.974;2023-03-15T20:05:17;101886.66;;;5.65;82.33
31062;BME280;17724;53.546;9.974;2023-03-15T20:09:17;101895.38;;;5.82;82.27
31062;BME280;17724;53.546;9.974;2023-03-15T20:13:18;101894.97;;;5.85;84.29
31062;BME280;17724;53.546;9.974;2023-03-15T20:17:18;101904.84;;;5.86;84.35
31062;BME280;17724;53.546;9.974;2023-03-15T20:21:22;101909.81;;;5.76;83.13
31062;BME280;17724;53.546;9.974;2023-03-15T20:25:22;101899.75;;;5.77;85.33
31062;BME280;17724;53.546;9.974;2023-03-15T20:29:23;101915.97;;;5.85;84.96
31062;BME280;17724;53.546;9.974;2023-03-15T20:33:23;101916.72;;;5.72;84.93
31062;BME280;17724;53.546;9.974;2023-03-15T20:37:25;101918.22;;;5.75;84.63
31062;BME280;17724;53.546;9.974;2023-03-15T20:41:26;101916.66;;;5.65;83.79
31062;BME280;17724;53.546;9.974;2023-03-15T20:45:26;101931.97;;;5.60;85.78
31062;BME280;17724;53.546;9.974;2023-03-15T20:49:27;101934.44;;;5.55;85.67
31062;BME280;17724;53.546;9.974;2023-03-15T20:53:28;101930.81;;;5.48;86.36
31062;BME280;17724;53.546;9.974;2023-03-15T20:57:29;101941.13;;;5.52;86.38
31062;BME280;17724;53.546;9.974;2023-03-15T21:01:30;101937.75;;;5.50;86.51
31062;BME280;17724;53.546;9.974;2023-03-15T21:05:31;101941.97;;;5.53;85.43
31062;BME280;17724;53.546;9.974;2023-03-15T21:09:32;101949.31;;;5.52;85.65
31062;BME280;17724;53.546;9.974;2023-03-15T21:13:33;101950.81;;;5.55;85.70
31062;BME280;17724;53.546;9.974;2023-03-15T21:17:34;101948.34;;;5.38;82.73
31062;BME280;17724;53.546;9.974;2023-03-15T21:21:34;101945.88;;;5.22;84.21
31062;BME280;17724;53.546;9.974;2023-03-15T21:25:35;101943.13;;;5.15;86.93
31062;BME280;17724;53.546;9.974;2023-03-15T21:29:36;101945.63;;;5.38;87.19
31062;BME280;17724;53.546;9.974;2023-03-15T21:33:36;101939.78;;;5.41;86.74
31062;BME280;17724;53.546;9.974;2023-03-15T21:37:37;101942.19;;;5.30;84.80
31062;BME280;17724;53.546;9.974;2023-03-15T21:41:37;101944.97;;;5.36;86.82
31062;BME280;17724;53.546;9.974;2023-03-15T21:45:39;101941.56;;;5.28;85.84
31062;BME280;17724;53.546;9.974;2023-03-15T21:49:41;101950.25;;;5.16;86.25
31062;BME280;17724;53.546;9.974;2023-03-15T21:53:44;101947.00;;;5.28;86.83
31062;BME280;17724;53.546;9.974;2023-03-15T21:57:45;101949.66;;;5.21;84.36
31062;BME280;17724;53.546;9.974;2023-03-15T22:01:46;101929.03;;;5.12;82.95
31062;BME280;17724;53.546;9.974;2023-03-15T22:05:47;101959.78;;;5.06;82.96
31062;BME280;17724;53.546;9.974;2023-03-15T22:09:48;101960.25;;;5.09;83.02
31062;BME280;17724;53.546;9.974;2023-03-15T22:13:48;101963.41;;;5.13;83.14
31062;BME280;17724;53.546;9.974;2023-03-15T22:17:49;101956.34;;;4.97;83.72